Time;durP1;ratioP1;P1;durP2;ratioP2;P2;SDS_P1;SDS_P2;PMS_P1;PMS_P2;Temp;Humidity;BMP_temperature;BMP_pressure;BME280_temperature;BME280_humidity;BME280_pressure;Samples;Min_cycle;Max_cycle;Signal;HPM_P1;HPM_P2
2022/02/17 00:01:06;;;;;;;;;0.00;0.00;;;;;15.23;74.27;100426.31;5074360;27;45495;-74
2022/02/17 00:03:33;;;;;;;;;0.00;0.00;;;;;15.17;74.78;100414.88;5073633;28;53196;-75
2022/02/17 00:05:58;;;;;;;;;0.00;0.00;;;;;15.21;74.46;100415.72;5074575;27;45314;-74
2022/02/17 00:08:23;;;;;;;;;0.00;0.00;;;;;15.21;74.37;100429.00;5071421;28;46411;-75
2022/02/17 00:10:49;;;;;;;;;0.00;0.00;;;;;15.17;74.63;100446.78;5074496;28;45334;-75
2022/02/17 00:13:14;;;;;;;;;0.00;0.00;;;;;15.22;74.72;100435.19;5085938;27;45236;-75
2022/02/17 00:15:40;;;;;;;;;0.00;0.00;;;;;15.21;74.94;100426.34;5078572;27;45529;-75
2022/02/17 00:18:21;;;;;;;;;0.00;0.00;;;;;15.13;75.07;100407.84;5073251;27;60595;-74
2022/02/17 00:21:00;;;;;;;;;0.00;0.00;;;;;15.13;75.47;100412.31;5079825;27;45555;-74
2022/02/17 00:23:25;;;;;;;;;0.00;0.00;;;;;15.10;75.42;100444.25;5074835;28;45277;-75
2022/02/17 00:25:51;;;;;;;;;0.00;0.00;;;;;15.07;75.69;100444.28;5073050;27;45227;-75
2022/02/17 00:28:16;;;;;;;;;0.00;0.00;;;;;15.05;75.88;100454.06;5091347;27;46408;-74
2022/02/17 00:30:42;;;;;;;;;0.00;0.00;;;;;15.05;76.18;100464.69;5071405;27;45144;-75
2022/02/17 00:33:07;;;;;;;;;0.00;0.00;;;;;15.01;77.41;100469.16;5076097;28;51072;-75
2022/02/17 00:35:33;;;;;;;;;1.00;0.00;;;;;14.96;77.55;100463.03;5074269;27;57076;-74
2022/02/17 00:37:59;;;;;;;;;0.00;0.00;;;;;14.87;78.29;100468.47;5076628;27;46627;-75
2022/02/17 00:40:24;;;;;;;;;0.00;0.00;;;;;14.79;78.17;100455.25;5070833;27;45338;-75
2022/02/17 00:42:49;;;;;;;;;0.00;0.00;;;;;14.80;78.54;100477.41;5072294;28;45584;-74
2022/02/17 00:45:15;;;;;;;;;0.00;0.00;;;;;14.74;78.76;100491.66;5075966;28;53867;-75
2022/02/17 00:47:40;;;;;;;;;0.00;0.00;;;;;14.70;78.72;100497.91;5074985;28;45558;-74
2022/02/17 00:50:06;;;;;;;;;0.00;0.00;;;;;14.70;78.54;100507.63;5076043;27;48546;-75
2022/02/17 00:52:31;;;;;;;;;0.00;0.00;;;;;14.68;79.06;100505.88;5078330;28;45249;-74
2022/02/17 00:54:57;;;;;;;;;0.00;0.00;;;;;14.67;78.93;100509.44;5076352;28;45635;-74
2022/02/17 00:57:22;;;;;;;;;0.00;0.00;;;;;14.68;78.41;100505.00;5077671;28;63012;-75
2022/02/17 00:59:47;;;;;;;;;0.00;0.00;;;;;14.68;78.60;100519.16;5071606;27;57382;-74
2022/02/17 01:02:13;;;;;;;;;0.00;0.00;;;;;14.72;78.38;100516.50;5077738;28;56325;-74
2022/02/17 01:04:38;;;;;;;;;1.00;0.00;;;;;14.69;77.99;100520.06;5070927;27;45408;-74
2022/02/17 01:07:04;;;;;;;;;0.00;0.00;;;;;14.75;77.50;100516.44;5075266;27;60703;-74
2022/02/17 01:09:29;;;;;;;;;0.00;0.00;;;;;14.74;77.50;100530.63;5077963;28;45290;-74
2022/02/17 01:11:55;;;;;;;;;0.00;0.00;;;;;14.78;77.30;100538.56;5076916;27;45423;-74
2022/02/17 01:14:20;;;;;;;;;0.00;0.00;;;;;14.78;76.95;100545.66;5082640;27;45428;-75
2022/02/17 01:16:45;;;;;;;;;0.00;0.00;;;;;14.76;76.59;100528.88;5076964;27;54984;-75
2022/02/17 01:19:12;;;;;;;;;0.00;0.00;;;;;14.71;76.44;100506.78;5077890;28;45322;-74
2022/02/17 01:21:37;;;;;;;;;0.00;0.00;;;;;14.76;76.81;100520.88;5084779;27;45380;-75
2022/02/17 01:24:02;;;;;;;;;0.00;0.00;;;;;14.75;75.73;100511.13;5074945;27;54439;-75
2022/02/17 01:26:28;;;;;;;;;1.33;0.00;;;;;14.80;75.94;100522.59;5076219;28;46280;-74
2022/02/17 01:28:53;;;;;;;;;1.00;0.00;;;;;14.81;76.10;100537.66;5075303;28;45510;-74
2022/02/17 01:31:19;;;;;;;;;1.00;0.00;;;;;14.83;75.88;100558.00;5071659;28;54753;-74
2022/02/17 01:33:44;;;;;;;;;0.00;0.00;;;;;14.84;75.40;100553.56;5076136;28;45227;-74
2022/02/17 01:36:10;;;;;;;;;0.00;0.00;;;;;14.85;74.69;100566.81;5073781;27;57470;-75
2022/02/17 01:38:36;;;;;;;;;0.00;0.00;;;;;14.83;74.05;100560.66;5075097;27;45508;-74
2022/02/17 01:41:01;;;;;;;;;1.00;0.00;;;;;14.79;73.85;100580.19;5072826;28;45325;-74
2022/02/17 01:43:27;;;;;;;;;0.67;0.00;;;;;14.74;73.38;100595.28;5054097;28;45633;-74
2022/02/17 01:45:52;;;;;;;;;0.00;0.00;;;;;14.72;73.52;100573.19;5077169;27;60659;-75
2022/02/17 01:48:17;;;;;;;;;1.00;0.00;;;;;14.73;73.22;100572.28;5075313;27;45611;-74
2022/02/17 01:50:43;;;;;;;;;0.00;0.00;;;;;14.68;72.07;100569.66;5076892;28;57505;-75
2022/02/17 01:53:09;;;;;;;;;2.00;0.00;;;;;14.68;72.03;100582.06;5075125;28;54669;-76
2022/02/17 01:55:36;;;;;;;;;0.00;0.00;;;;;14.70;71.68;100598.91;5075459;28;47584;-74
2022/02/17 01:58:02;;;;;;;;;1.67;0.00;;;;;14.70;69.16;100579.41;5076702;27;45350;-74
2022/02/17 02:00:27;;;;;;;;;1.33;0.33;;;;;14.70;70.03;100590.94;5073391;28;45263;-74
2022/02/17 02:02:52;;;;;;;;;2.00;0.00;;;;;14.68;68.95;100616.63;5073789;28;45195;-75
2022/02/17 02:05:18;;;;;;;;;3.67;1.00;;;;;14.64;68.83;100621.06;5071427;28;61920;-74
2022/02/17 02:07:43;;;;;;;;;2.67;1.00;;;;;14.53;67.64;100598.16;5076379;27;60248;-75
2022/02/17 02:10:09;;;;;;;;;1.00;0.00;;;;;14.52;67.80;100605.25;5071900;27;45236;-75
2022/02/17 02:12:34;;;;;;;;;4.67;1.00;;;;;14.46;68.39;100607.06;5084725;27;57038;-75
2022/02/17 02:14:59;;;;;;;;;2.00;0.67;;;;;14.42;67.43;100620.34;5071135;27;60005;-74
2022/02/17 02:17:25;;;;;;;;;4.33;0.33;;;;;14.37;66.24;100615.97;5076350;28;45469;-74
2022/02/17 02:19:56;;;;;;;;;6.00;1.00;;;;;14.33;66.23;100617.78;5067526;27;45388;-75
2022/02/17 02:22:22;;;;;;;;;2.00;1.00;;;;;14.30;65.64;100620.44;5075602;27;45371;-75
2022/02/17 02:24:47;;;;;;;;;5.67;0.00;;;;;14.29;64.67;100612.50;5069464;28;58697;-75
2022/02/17 02:27:13;;;;;;;;;2.00;2.00;;;;;14.24;64.28;100630.25;5070710;28;45493;-75
2022/02/17 02:29:39;;;;;;;;;3.00;1.00;;;;;14.21;64.94;100609.00;5069371;28;45192;-74
2022/02/17 02:32:05;;;;;;;;;4.00;1.00;;;;;14.17;65.21;100618.78;5072435;27;45485;-75
2022/02/17 02:34:30;;;;;;;;;2.67;1.00;;;;;14.20;64.36;100633.81;5068558;28;46324;-75
2022/02/17 02:36:56;;;;;;;;;3.67;0.00;;;;;14.17;64.19;100640.03;5073628;27;45524;-74
2022/02/17 02:39:21;;;;;;;;;1.00;1.00;;;;;14.18;65.30;100628.53;5076008;28;54362;-75
2022/02/17 02:41:46;;;;;;;;;5.00;1.00;;;;;14.19;64.93;100643.56;5196397;22;45450;-75
2022/02/17 02:44:12;;;;;;;;;7.67;0.67;;;;;14.21;65.05;100640.88;5085223;27;62328;-74
2022/02/17 02:46:37;;;;;;;;;4.00;0.67;;;;;14.21;65.25;100652.38;5110005;27;56891;-74
2022/02/17 02:49:03;;;;;;;;;4.00;1.00;;;;;14.22;65.62;100642.63;5106081;27;45464;-74
2022/02/17 02:51:28;;;;;;;;;2.33;0.00;;;;;14.25;65.28;100661.22;5098989;27;45473;-75
2022/02/17 02:53:53;;;;;;;;;2.00;1.00;;;;;14.27;65.43;100646.16;5111779;27;60579;-74
2022/02/17 02:56:19;;;;;;;;;0.00;0.00;;;;;14.27;64.90;100648.81;5109227;27;45469;-74
2022/02/17 02:58:44;;;;;;;;;2.00;1.00;;;;;14.28;64.47;100642.63;5102146;27;45306;-75
2022/02/17 03:01:10;;;;;;;;;3.00;0.00;;;;;14.28;63.98;100642.63;5114478;27;51196;-75
2022/02/17 03:03:36;;;;;;;;;6.00;1.00;;;;;14.25;63.72;100643.50;5106339;27;47386;-75
2022/02/17 03:06:01;;;;;;;;;4.00;1.00;;;;;14.27;62.89;100659.41;5108898;27;53577;-75
2022/02/17 03:08:27;;;;;;;;;5.00;2.00;;;;;14.27;62.40;100654.09;5097982;27;54698;-74
2022/02/17 03:10:52;;;;;;;;;5.00;2.00;;;;;14.28;62.58;100656.78;5106880;27;48154;-74
2022/02/17 03:13:17;;;;;;;;;6.33;0.67;;;;;14.30;63.17;100649.66;5096703;27;64081;-74
2022/02/17 03:15:43;;;;;;;;;3.67;1.67;;;;;14.32;62.61;100645.22;5103218;27;58050;-75
2022/02/17 03:18:08;;;;;;;;;3.33;1.00;;;;;14.32;62.49;100654.97;5100441;27;55453;-74
2022/02/17 03:20:34;;;;;;;;;6.67;2.67;;;;;14.34;61.98;100658.50;5104705;27;53749;-75
2022/02/17 03:23:00;;;;;;;;;6.00;1.00;;;;;14.32;62.03;100649.66;5099132;27;47418;-74
2022/02/17 03:25:25;;;;;;;;;8.00;3.00;;;;;14.30;60.14;100662.94;5099395;27;56177;-75
2022/02/17 03:27:50;;;;;;;;;6.00;2.00;;;;;14.23;59.46;100658.59;5104618;27;45605;-75
2022/02/17 03:30:16;;;;;;;;;4.33;1.67;;;;;14.17;59.38;100655.97;5111077;27;54915;-75
2022/02/17 03:32:41;;;;;;;;;9.00;3.33;;;;;14.07;59.77;100663.09;5103547;27;45935;-74
2022/02/17 03:35:07;;;;;;;;;10.00;2.00;;;;;13.99;58.76;100664.03;5101451;27;45507;-75
2022/02/17 03:37:33;;;;;;;;;6.33;1.67;;;;;13.96;58.19;100670.25;5111014;27;45507;-74
2022/02/17 03:39:58;;;;;;;;;8.00;2.67;;;;;13.88;58.44;100669.41;5103196;27;45512;-74
2022/02/17 03:42:24;;;;;;;;;3.33;2.33;;;;;13.85;58.81;100698.63;5110351;27;46511;-75
2022/02/17 03:44:49;;;;;;;;;5.33;2.33;;;;;13.83;58.46;100681.81;5101610;27;45705;-75
2022/02/17 03:47:14;;;;;;;;;12.00;4.33;;;;;13.75;57.88;100655.31;5110732;27;53616;-75
2022/02/17 03:49:40;;;;;;;;;7.00;2.00;;;;;13.77;58.62;100680.06;5092138;27;45275;-74
2022/02/17 03:52:05;;;;;;;;;15.33;4.00;;;;;13.72;58.29;100679.22;5105238;27;46627;-75
2022/02/17 03:54:31;;;;;;;;;8.67;3.33;;;;;13.69;58.49;100697.81;5104481;27;45389;-75
2022/02/17 03:56:56;;;;;;;;;11.00;3.33;;;;;13.68;59.21;100714.59;5111479;27;46745;-75
2022/02/17 03:59:22;;;;;;;;;5.00;2.00;;;;;13.65;59.09;100709.31;5108096;27;45623;-74
2022/02/17 04:01:47;;;;;;;;;11.33;3.00;;;;;13.65;59.58;100719.94;5112793;27;58940;-74
2022/02/17 04:04:12;;;;;;;;;16.00;3.67;;;;;13.61;59.57;100702.25;5110173;27;61401;-75
2022/02/17 04:06:38;;;;;;;;;9.33;4.00;;;;;13.60;59.89;100721.72;5119422;27;45290;-74
2022/02/17 04:09:06;;;;;;;;;6.67;3.33;;;;;13.65;59.94;100716.41;5111479;27;45589;-74
2022/02/17 04:11:32;;;;;;;;;3.33;2.00;;;;;13.64;60.72;100731.44;5116337;27;46832;-75
2022/02/17 04:13:58;;;;;;;;;11.67;2.33;;;;;13.65;60.47;100745.59;5104656;27;45182;-74
2022/02/17 04:16:23;;;;;;;;;6.00;3.00;;;;;13.66;60.42;100760.59;5119755;27;45873;-74
2022/02/17 04:18:59;;;;;;;;;3.33;0.00;;;;;13.62;60.43;100734.06;5110927;27;45533;-74
2022/02/17 04:21:25;;;;;;;;;13.67;4.00;;;;;13.62;60.01;100750.00;5083777;27;46492;-75
2022/02/17 04:23:50;;;;;;;;;11.33;5.33;;;;;13.58;59.46;100753.56;5116872;27;60959;-75
2022/02/17 04:26:18;;;;;;;;;7.67;4.67;;;;;13.54;59.25;100746.50;5106186;27;45434;-74
2022/02/17 04:28:43;;;;;;;;;12.33;3.00;;;;;13.52;59.60;100768.59;5109382;27;45673;-76
2022/02/17 04:31:10;;;;;;;;;7.67;2.67;;;;;13.47;58.50;100784.50;5107645;27;45362;-74
2022/02/17 04:33:35;;;;;;;;;5.00;2.00;;;;;13.51;56.91;100798.66;5094266;27;45433;-74
2022/02/17 04:36:01;;;;;;;;;4.00;1.00;;;;;13.45;58.06;100796.91;5101609;27;45353;-74
2022/02/17 04:38:27;;;;;;;;;12.00;3.67;;;;;13.45;56.81;100798.66;5111468;27;45622;-74
2022/02/17 04:43:37;;;;;;;;;12.00;4.00;;;;;13.41;56.38;100823.41;5102744;27;45428;-75
2022/02/17 04:46:02;;;;;;;;;12.67;4.67;;;;;13.34;56.63;100826.09;5089405;27;58281;-74
2022/02/17 04:48:28;;;;;;;;;9.67;3.67;;;;;13.32;56.45;100835.81;5107430;27;47452;-74
2022/02/17 04:50:53;;;;;;;;;11.33;3.33;;;;;13.28;57.00;100846.41;5114902;27;64363;-74
2022/02/17 04:53:18;;;;;;;;;12.33;4.67;;;;;13.25;57.10;100846.41;5094155;27;57505;-74
2022/02/17 04:55:44;;;;;;;;;10.67;4.00;;;;;13.23;56.69;100838.47;5104653;27;45175;-74
2022/02/17 04:58:09;;;;;;;;;15.67;3.00;;;;;13.17;57.39;100862.28;5107320;27;45286;-75
2022/02/17 05:00:35;;;;;;;;;9.67;5.33;;;;;13.18;57.25;100857.88;5110357;27;64471;-75
2022/02/17 05:03:00;;;;;;;;;5.33;3.00;;;;;13.17;57.78;100862.28;5110576;27;45425;-75
2022/02/17 05:05:26;;;;;;;;;14.00;3.00;;;;;13.17;57.86;100862.28;5106090;27;54628;-75
2022/02/17 05:07:51;;;;;;;;;6.67;5.33;;;;;13.16;57.60;100875.56;5113538;27;45476;-74
2022/02/17 05:10:17;;;;;;;;;10.67;4.67;;;;;13.16;57.71;100870.25;5112804;27;61380;-74
2022/02/17 05:12:42;;;;;;;;;15.67;5.33;;;;;13.17;57.58;100877.31;5098522;27;53919;-74
2022/02/17 05:15:08;;;;;;;;;10.00;5.33;;;;;13.18;56.78;100866.72;5096938;27;45854;-75
2022/02/17 05:17:33;;;;;;;;;18.00;6.00;;;;;13.17;56.58;100874.66;5102651;27;45469;-75
2022/02/17 05:19:59;;;;;;;;;15.00;6.67;;;;;13.15;56.41;100893.19;5104123;27;47347;-75
2022/02/17 05:22:24;;;;;;;;;9.67;4.00;;;;;13.08;55.49;100881.72;5106417;27;45342;-74
2022/02/17 05:24:49;;;;;;;;;2.67;2.00;;;;;13.10;57.33;100902.91;5098012;27;56627;-74
2022/02/17 05:27:15;;;;;;;;;15.33;6.33;;;;;13.10;56.74;100903.81;5098336;27;45549;-76
2022/02/17 05:29:40;;;;;;;;;16.00;5.00;;;;;13.09;56.74;100919.72;5103361;27;55175;-75
2022/02/17 05:32:06;;;;;;;;;11.67;6.67;;;;;13.07;56.91;100914.41;5098626;27;49017;-75
2022/02/17 05:34:31;;;;;;;;;11.00;3.00;;;;;13.06;57.03;100922.38;5094419;27;45496;-76
2022/02/17 05:36:57;;;;;;;;;6.00;3.00;;;;;13.04;56.04;100929.41;5099718;27;45453;-77
2022/02/17 05:39:22;;;;;;;;;5.67;3.67;;;;;12.99;56.47;100931.16;5095785;27;49934;-76
2022/02/17 05:41:47;;;;;;;;;9.67;5.33;;;;;12.98;56.32;100938.22;5096653;27;45579;-77
2022/02/17 05:44:13;;;;;;;;;11.67;3.67;;;;;12.93;55.84;100933.81;5096203;27;45382;-77
2022/02/17 05:46:39;;;;;;;;;11.00;3.00;;;;;12.93;56.37;100928.50;5097670;27;53085;-77
2022/02/17 05:49:05;;;;;;;;;7.67;3.00;;;;;12.91;56.37;100940.88;5097126;27;46252;-77
2022/02/17 05:51:30;;;;;;;;;10.33;6.33;;;;;12.90;56.82;100939.13;5102071;27;45460;-78
2022/02/17 05:53:55;;;;;;;;;12.67;4.67;;;;;12.90;56.59;100925.88;5096855;27;55481;-78
2022/02/17 05:56:21;;;;;;;;;8.00;4.33;;;;;12.88;56.82;100932.91;5100836;27;47150;-76
2022/02/17 05:58:46;;;;;;;;;18.00;3.67;;;;;12.88;56.68;100928.47;5098374;27;60618;-76
2022/02/17 06:01:11;;;;;;;;;9.00;5.00;;;;;12.83;56.92;100928.47;5101644;27;59677;-76
2022/02/17 06:03:37;;;;;;;;;11.00;5.00;;;;;12.84;57.24;100934.69;5107117;27;55636;-75
2022/02/17 06:06:02;;;;;;;;;12.00;4.33;;;;;12.83;57.10;100947.00;5093940;27;54084;-74
2022/02/17 06:08:28;;;;;;;;;14.00;5.33;;;;;12.81;57.26;100955.84;5105832;27;46412;-75
2022/02/17 06:10:53;;;;;;;;;7.33;5.00;;;;;12.80;56.69;100946.13;5093518;27;50497;-74
2022/02/17 06:13:18;;;;;;;;;14.00;5.00;;;;;12.85;57.10;100963.81;5074783;27;45947;-74
2022/02/17 06:15:44;;;;;;;;;12.67;5.00;;;;;12.89;56.75;100971.75;5095070;27;46847;-76
2022/02/17 06:18:09;;;;;;;;;12.67;5.00;;;;;12.96;57.19;100950.63;5089491;27;46835;-75
2022/02/17 06:20:35;;;;;;;;;18.67;6.00;;;;;12.95;57.02;100954.16;5094086;27;45334;-75
2022/02/17 06:23:00;;;;;;;;;12.00;4.67;;;;;12.91;57.42;100957.66;5094762;27;46607;-81
2022/02/17 06:25:26;;;;;;;;;12.00;3.00;;;;;12.85;57.55;100961.19;5098252;27;45930;-80
2022/02/17 06:27:51;;;;;;;;;13.33;5.00;;;;;12.85;57.60;100963.81;5078342;27;47150;-81
2022/02/17 06:30:17;;;;;;;;;16.33;4.33;;;;;12.81;57.89;100972.63;5102379;27;45347;-77
2022/02/17 06:32:45;;;;;;;;;16.67;4.00;;;;;12.76;58.50;100990.28;5096692;27;45782;-78
2022/02/17 06:35:11;;;;;;;;;17.00;6.00;;;;;12.73;58.10;100989.38;5093635;27;45429;-78
2022/02/17 06:37:36;;;;;;;;;9.67;5.33;;;;;12.67;58.50;100995.53;5094432;27;56655;-80
2022/02/17 06:40:02;;;;;;;;;15.33;4.00;;;;;12.67;58.50;101003.47;5095127;27;55758;-80
2022/02/17 06:42:27;;;;;;;;;9.67;4.00;;;;;12.59;58.60;101005.22;5097163;27;45265;-76
2022/02/17 06:44:52;;;;;;;;;12.33;4.00;;;;;12.61;58.37;101005.22;5104093;27;46401;-76
2022/02/17 06:47:18;;;;;;;;;20.00;5.00;;;;;12.51;58.84;100998.97;5102382;27;63624;-76
2022/02/17 06:49:43;;;;;;;;;12.00;5.00;;;;;12.53;59.25;101024.59;5105831;27;45604;-80
2022/02/17 06:52:09;;;;;;;;;13.67;5.00;;;;;12.55;58.92;101022.84;5078003;27;50569;-76
2022/02/17 06:54:34;;;;;;;;;15.33;6.67;;;;;12.58;59.13;101012.28;5100065;27;48502;-77
2022/02/17 06:57:00;;;;;;;;;13.33;6.00;;;;;12.47;58.87;101011.31;5098211;27;46418;-76
2022/02/17 06:59:25;;;;;;;;;11.33;5.67;;;;;12.51;58.89;101036.94;5100597;27;45472;-79
2022/02/17 07:01:50;;;;;;;;;10.67;5.00;;;;;12.51;58.89;101015.75;5083382;27;48653;-84
2022/02/17 07:04:16;;;;;;;;;21.67;9.00;;;;;12.54;59.15;101025.47;5102630;27;55995;-78
2022/02/17 07:06:43;;;;;;;;;14.67;7.67;;;;;12.54;58.74;101036.97;5096862;27;46671;-75
2022/02/17 07:09:08;;;;;;;;;16.33;6.00;;;;;12.63;58.84;101041.44;5100150;27;45519;-75
2022/02/17 07:11:33;;;;;;;;;11.00;6.33;;;;;12.69;59.17;101053.84;5095078;27;55537;-75
2022/02/17 07:13:59;;;;;;;;;18.00;9.00;;;;;12.70;58.62;101059.13;5094796;27;55246;-75
2022/02/17 07:23:08;;;;;;;;;24.33;6.33;;;;;12.64;58.51;101053.81;5099415;27;45644;-75
2022/02/17 07:25:33;;;;;;;;;10.67;4.00;;;;;12.57;58.30;101055.53;5101644;27;45376;-75
2022/02/17 07:27:58;;;;;;;;;9.00;5.00;;;;;12.62;58.14;101066.13;5101056;27;65813;-74
2022/02/17 07:30:24;;;;;;;;;10.33;7.33;;;;;12.62;58.31;101078.50;5101957;27;46063;-75
2022/02/17 07:32:49;;;;;;;;;15.67;5.33;;;;;12.61;58.29;101084.69;5102427;27;45256;-76
2022/02/17 07:35:15;;;;;;;;;17.67;10.67;;;;;12.63;57.70;101093.53;5106107;27;45499;-75
2022/02/17 07:37:40;;;;;;;;;17.33;8.33;;;;;12.66;58.26;101097.06;5102607;27;60242;-75
2022/02/17 07:40:07;;;;;;;;;18.67;6.00;;;;;12.63;57.59;101094.44;5102676;27;45452;-75
2022/02/17 07:42:32;;;;;;;;;13.00;5.33;;;;;12.73;58.10;101103.28;5102958;27;45473;-75
2022/02/17 07:45:00;;;;;;;;;19.00;6.67;;;;;12.71;57.47;101110.34;5103081;27;45328;-76
2022/02/17 07:47:25;;;;;;;;;12.33;6.67;;;;;12.76;57.90;101113.94;5102042;27;46526;-76
2022/02/17 07:49:54;;;;;;;;;11.67;6.33;;;;;12.76;57.78;101109.50;5097474;27;45525;-75
2022/02/17 07:52:20;;;;;;;;;19.00;7.33;;;;;12.70;57.61;101101.53;5084580;27;45750;-76
2022/02/17 07:54:46;;;;;;;;;21.00;6.33;;;;;12.69;58.29;101112.13;5105062;27;45114;-75
2022/02/17 07:57:11;;;;;;;;;24.67;10.00;;;;;12.67;57.97;101111.22;5106507;27;64290;-75
2022/02/17 07:59:36;;;;;;;;;16.00;9.00;;;;;12.67;58.24;101113.84;5102142;27;61484;-74
2022/02/17 08:02:02;;;;;;;;;15.67;10.67;;;;;12.67;58.23;101121.81;5102174;27;45983;-75
2022/02/17 08:04:27;;;;;;;;;18.33;9.67;;;;;12.69;58.36;101126.25;5101116;27;46929;-75
2022/02/17 08:06:52;;;;;;;;;19.33;5.00;;;;;12.72;58.39;101120.97;5101871;27;46462;-75
2022/02/17 08:09:18;;;;;;;;;17.00;7.00;;;;;12.80;58.24;101119.25;5102381;27;45340;-75
2022/02/17 08:11:43;;;;;;;;;14.00;5.67;;;;;12.90;57.86;101128.16;5101400;27;56560;-74
2022/02/17 08:14:09;;;;;;;;;16.00;5.00;;;;;12.98;58.29;101130.84;5101070;27;45560;-74
2022/02/17 08:16:35;;;;;;;;;16.33;5.33;;;;;13.04;58.24;101133.53;5101184;27;47305;-74
2022/02/17 08:19:02;;;;;;;;;21.00;8.67;;;;;13.08;58.15;101125.59;5101684;27;45555;-75
2022/02/17 08:21:27;;;;;;;;;20.67;6.00;;;;;13.13;57.87;101136.25;5101393;27;45515;-74
2022/02/17 08:23:53;;;;;;;;;14.00;5.00;;;;;13.16;57.84;101143.34;5101844;27;52039;-74
2022/02/17 08:26:18;;;;;;;;;13.00;4.33;;;;;13.18;57.83;101160.13;5102136;27;59588;-74
2022/02/17 08:28:43;;;;;;;;;19.00;4.67;;;;;13.20;57.55;101172.50;5101449;27;62445;-74
2022/02/17 08:31:09;;;;;;;;;15.67;6.00;;;;;13.25;57.79;101168.16;5101397;27;54466;-75
2022/02/17 08:33:34;;;;;;;;;13.00;6.00;;;;;13.26;58.11;101171.69;5098733;27;53539;-74
2022/02/17 08:36:00;;;;;;;;;19.33;7.00;;;;;13.24;57.74;101155.78;5098555;27;46195;-75
2022/02/17 08:38:31;;;;;;;;;11.67;4.00;;;;;13.24;58.00;101176.09;5097862;27;57748;-73
2022/02/17 08:40:57;;;;;;;;;19.33;7.67;;;;;13.24;58.23;101173.44;5098656;27;45680;-75
2022/02/17 08:43:22;;;;;;;;;20.33;6.67;;;;;13.27;57.89;101179.66;5078871;27;45544;-73
2022/02/17 08:45:48;;;;;;;;;16.33;7.33;;;;;13.27;58.14;101189.41;5099649;27;65460;-73
2022/02/17 08:48:13;;;;;;;;;22.33;6.00;;;;;13.32;57.91;101200.91;5098209;27;60879;-73
2022/02/17 08:50:43;;;;;;;;;18.67;5.33;;;;;13.34;58.30;101185.88;5098628;27;45501;-75
2022/02/17 08:53:08;;;;;;;;;17.33;6.00;;;;;13.45;57.74;101183.28;5098261;27;45464;-75
2022/02/17 08:55:34;;;;;;;;;17.33;6.00;;;;;13.48;57.36;101196.56;5100060;27;47333;-75
2022/02/17 08:57:59;;;;;;;;;15.00;7.00;;;;;13.49;57.68;101178.00;5097358;27;45409;-75
2022/02/17 09:00:25;;;;;;;;;26.33;11.00;;;;;13.54;57.71;101170.97;5097924;27;45946;-74
2022/02/17 09:02:50;;;;;;;;;17.00;7.67;;;;;13.58;57.40;101182.44;5097672;27;55339;-75
2022/02/17 09:05:15;;;;;;;;;17.67;8.33;;;;;13.61;57.34;101183.34;5097869;27;47549;-75
2022/02/17 09:07:41;;;;;;;;;13.67;8.00;;;;;13.68;57.35;101188.69;5098477;27;50702;-75
2022/02/17 09:10:07;;;;;;;;;16.33;5.67;;;;;13.70;57.56;101184.28;5100159;27;45395;-75
2022/02/17 09:12:33;;;;;;;;;16.67;7.33;;;;;13.70;57.40;101200.22;5097875;27;45406;-75
2022/02/17 09:14:58;;;;;;;;;20.33;7.67;;;;;13.73;56.88;101190.47;5104290;27;45843;-75
2022/02/17 09:17:24;;;;;;;;;15.00;6.00;;;;;13.73;56.87;101192.25;5098445;27;45331;-75
2022/02/17 09:19:49;;;;;;;;;14.67;5.33;;;;;13.77;56.81;101207.31;5097904;27;45445;-75
2022/02/17 09:22:15;;;;;;;;;22.67;10.00;;;;;13.76;56.98;101186.97;5097333;27;54800;-75
2022/02/17 09:24:40;;;;;;;;;11.67;6.00;;;;;13.72;56.58;101209.94;5097431;27;64708;-75
2022/02/17 09:27:06;;;;;;;;;13.33;6.67;;;;;13.66;56.55;101215.22;5097552;27;59711;-75
2022/02/17 09:29:31;;;;;;;;;15.33;7.33;;;;;13.71;56.29;101212.59;5098287;27;45533;-75
2022/02/17 09:31:57;;;;;;;;;17.00;8.67;;;;;13.69;57.04;101217.91;5098177;27;51558;-74
2022/02/17 09:34:22;;;;;;;;;25.67;8.00;;;;;13.67;56.26;101235.56;5097873;27;47375;-75
2022/02/17 09:36:47;;;;;;;;;14.00;6.00;;;;;13.67;56.36;101232.91;5104368;27;45432;-75
2022/02/17 09:39:13;;;;;;;;;21.33;5.00;;;;;13.66;56.17;101254.16;5098065;27;45492;-75
2022/02/17 09:41:38;;;;;;;;;19.00;6.00;;;;;13.65;56.80;101244.41;5096310;27;54291;-76
2022/02/17 09:44:08;;;;;;;;;13.33;6.67;;;;;13.63;56.15;101253.25;5096315;27;57453;-75
2022/02/17 09:46:33;;;;;;;;;21.33;5.00;;;;;13.62;56.07;101248.81;5097984;27;45354;-75
2022/02/17 09:49:01;;;;;;;;;15.00;7.00;;;;;13.69;55.81;101257.72;5072760;27;47224;-76
2022/02/17 09:51:27;;;;;;;;;18.33;6.67;;;;;13.80;56.39;101263.94;5097851;27;45278;-75
2022/02/17 09:53:53;;;;;;;;;17.33;4.33;;;;;13.88;56.39;101262.19;5097667;27;47199;-75
2022/02/17 09:56:19;;;;;;;;;13.67;5.33;;;;;13.89;55.54;101245.38;5080020;27;45402;-75
2022/02/17 09:58:44;;;;;;;;;11.67;6.00;;;;;14.00;56.37;101264.00;5096607;27;45315;-75
2022/02/17 10:01:17;;;;;;;;;18.00;8.33;;;;;14.02;55.16;101256.06;5097649;27;45860;-75
2022/02/17 10:03:42;;;;;;;;;23.33;7.00;;;;;14.13;55.06;101268.50;5096500;27;46541;-76
2022/02/17 10:06:11;;;;;;;;;15.00;5.33;;;;;14.12;54.91;101250.81;5096286;27;56344;-75
2022/02/17 10:08:37;;;;;;;;;17.67;7.67;;;;;14.07;55.03;101263.19;5078389;27;45534;-75
2022/02/17 10:11:07;;;;;;;;;16.00;7.33;;;;;14.19;54.94;101282.69;5097317;27;45437;-75
2022/02/17 10:13:32;;;;;;;;;17.67;5.00;;;;;14.24;54.78;101265.00;5105371;27;46780;-75
2022/02/17 10:15:58;;;;;;;;;15.67;7.67;;;;;14.25;55.06;101262.34;5097365;27;45413;-75
2022/02/17 10:18:27;;;;;;;;;14.00;4.00;;;;;14.28;54.27;101269.44;5097429;27;47681;-75
2022/02/17 10:21:08;;;;;;;;;11.00;8.00;;;;;14.36;54.78;101295.13;5097316;27;45478;-75
2022/02/17 10:23:44;;;;;;;;;13.67;8.33;;;;;14.35;55.38;101272.09;5095262;27;47622;-75
2022/02/17 10:26:35;;;;;;;;;14.67;6.00;;;;;14.45;55.10;101280.13;5097083;27;45462;-76
2022/02/17 10:29:03;;;;;;;;;13.33;4.00;;;;;14.48;54.67;101288.09;5088963;27;48987;-75
2022/02/17 10:31:32;;;;;;;;;14.33;5.00;;;;;14.50;54.42;101291.66;5096933;27;45618;-75
2022/02/17 10:33:59;;;;;;;;;7.67;4.67;;;;;14.51;54.76;101288.13;5095515;27;46197;-78
2022/02/17 10:36:34;;;;;;;;;11.33;6.67;;;;;14.49;54.40;101285.47;5096478;27;45280;-77
2022/02/17 10:39:12;;;;;;;;;16.67;8.33;;;;;14.55;54.75;101289.91;5090180;27;45335;-75
2022/02/17 10:41:47;;;;;;;;;15.33;6.00;;;;;14.57;54.65;101299.66;5094121;27;45582;-75
2022/02/17 10:44:13;;;;;;;;;15.67;7.33;;;;;14.65;54.28;101291.72;5096459;27;46441;-75
2022/02/17 10:46:38;;;;;;;;;9.67;5.00;;;;;14.70;54.02;101295.25;5096666;27;45468;-75
2022/02/17 10:49:17;;;;;;;;;21.00;4.67;;;;;14.74;52.86;101310.31;5096574;27;51402;-74
2022/02/17 10:51:42;;;;;;;;;7.33;4.33;;;;;14.75;52.86;101303.22;5096687;27;45491;-74
2022/02/17 10:54:08;;;;;;;;;18.00;4.67;;;;;14.70;52.44;101312.94;5077433;27;46436;-75
2022/02/17 10:56:34;;;;;;;;;7.00;3.00;;;;;14.80;52.49;101330.69;5099036;27;45416;-74
2022/02/17 10:59:01;;;;;;;;;11.67;7.00;;;;;14.65;51.76;101324.47;5077950;27;45441;-74
2022/02/17 11:01:26;;;;;;;;;8.33;5.00;;;;;14.61;52.65;101311.19;5076624;27;45356;-74
2022/02/17 11:03:53;;;;;;;;;10.00;8.00;;;;;14.65;52.47;101329.81;5061197;27;45839;-75
2022/02/17 11:06:18;;;;;;;;;26.67;7.00;;;;;14.71;53.03;101334.25;5096565;27;45461;-73
2022/02/17 11:08:45;;;;;;;;;10.67;5.33;;;;;14.75;52.23;101349.28;5098347;27;45705;-74
2022/02/17 11:11:11;;;;;;;;;16.67;6.00;;;;;14.70;51.94;101350.16;5096192;27;45372;-74
2022/02/17 11:13:36;;;;;;;;;7.00;3.33;;;;;14.60;51.75;101336.00;5097661;27;47082;-74
2022/02/17 11:16:03;;;;;;;;;5.33;4.00;;;;;14.58;51.91;101364.31;5094759;27;51627;-74
2022/02/17 11:18:28;;;;;;;;;13.00;7.00;;;;;14.59;52.40;101368.75;5100015;27;45351;-74
2022/02/17 11:20:54;;;;;;;;;16.67;6.00;;;;;14.65;52.66;101347.53;5098281;27;53799;-74
2022/02/17 11:23:20;;;;;;;;;9.00;3.67;;;;;14.71;52.17;101360.81;5102765;27;45612;-74
2022/02/17 11:25:47;;;;;;;;;13.00;4.00;;;;;14.65;52.56;101343.09;5096163;27;45440;-74